Time,TemperatureF,DewpointF,PressureIn,WindDirection,WindDirectionDegrees,WindSpeedMPH,WindSpeedGustMPH,Humidity,HourlyPrecipIn,Conditions,Clouds,dailyrainin,SoftwareType,DateUTC
2013-01-06 00:00:00,39.2,20.1,30.22,East,95,0.0,1.0,46,0.00,,,0.00,Wunderground v.1.15,2013-01-06 07:00:00,
2013-01-06 00:05:00,38.9,20.9,30.21,East,95,0.0,1.0,48,0.00,,,0.00,Wunderground v.1.15,2013-01-06 07:05:00,
2013-01-06 00:10:00,38.1,20.6,30.21,East,100,0.0,0.0,49,0.00,,,0.00,Wunderground v.1.15,2013-01-06 07:10:00,
2013-01-06 00:15:00,37.3,20.3,30.21,East,101,0.0,1.0,50,0.00,,,0.00,Wunderground v.1.15,2013-01-06 07:15:00,
2013-01-06 00:20:00,37.6,20.1,30.21,ESE,109,0.0,0.0,49,0.00,,,0.00,Wunderground v.1.15,2013-01-06 07:20:00,
2013-01-06 00:25:00,37.9,20.4,30.20,ESE,113,0.0,1.0,49,0.00,,,0.00,Wunderground v.1.15,2013-01-06 07:25:00,
2013-01-06 00:30:00,37.7,20.2,30.20,ESE,113,0.0,0.0,49,0.00,,,0.00,Wunderground v.1.15,2013-01-06 07:30:00,
2013-01-06 00:35:00,38.4,19.9,30.20,ESE,110,0.0,1.0,47,0.00,,,0.00,Wunderground v.1.15,2013-01-06 07:35:00,
2013-01-06 00:40:00,38.8,19.8,30.20,East,98,0.0,1.0,46,0.00,,,0.00,Wunderground v.1.15,2013-01-06 07:40:00,
2013-01-06 00:46:00,38.9,19.9,30.20,ENE,75,0.0,1.0,46,0.00,,,0.00,Wunderground v.1.15,2013-01-06 07:46:00,
2013-01-06 00:51:00,38.6,19.6,30.20,ENE,75,0.0,0.0,46,0.00,,,0.00,Wunderground v.1.15,2013-01-06 07:51:00,
2013-01-06 00:56:00,38.2,20.2,30.20,ENE,77,0.0,0.0,48,0.00,,,0.00,Wunderground v.1.15,2013-01-06 07:56:00,
2013-01-06 01:01:00,38.0,20.0,30.20,SE,134,0.0,0.0,48,0.00,,,0.00,Wunderground v.1.15,2013-01-06 08:01:00,
2013-01-06 01:07:00,37.9,19.9,30.20,SE,142,0.0,0.0,48,0.00,,,0.00,Wunderground v.1.15,2013-01-06 08:07:00,
2013-01-06 01:13:00,37.8,20.3,30.19,ESE,111,0.0,1.0,49,0.00,,,0.00,Wunderground v.1.15,2013-01-06 08:13:00,
2013-01-06 01:18:00,38.2,19.2,30.19,NE,47,0.0,1.0,46,0.00,,,0.00,Wunderground v.1.15,2013-01-06 08:18:00,
2013-01-06 01:23:00,38.5,19.5,30.19,ENE,77,0.0,0.0,46,0.00,,,0.00,Wunderground v.1.15,2013-01-06 08:23:00,
2013-01-06 01:28:00,38.9,19.3,30.19,ENE,66,1.0,2.0,45,0.00,,,0.00,Wunderground v.1.15,2013-01-06 08:28:00,
2013-01-06 01:33:00,39.3,18.6,30.19,NE,53,2.0,3.0,43,0.00,,,0.00,Wunderground v.1.15,2013-01-06 08:33:00,
2013-01-06 01:38:00,39.8,19.1,30.19,SE,125,3.0,3.0,43,0.00,,,0.00,Wunderground v.1.15,2013-01-06 08:38:00,
2013-01-06 01:44:00,40.4,18.5,30.18,East,96,2.0,2.0,41,0.00,,,0.00,Wunderground v.1.15,2013-01-06 08:44:00,
2013-01-06 01:49:00,40.9,19.5,30.18,ESE,105,3.0,3.0,42,0.00,,,0.00,Wunderground v.1.15,2013-01-06 08:49:00,
2013-01-06 01:54:00,40.6,19.3,30.18,ENE,61,2.0,2.0,42,0.00,,,0.00,Wunderground v.1.15,2013-01-06 08:54:00,
2013-01-06 02:00:00,40.4,19.1,30.18,ESE,114,2.0,2.0,42,0.00,,,0.00,Wunderground v.1.15,2013-01-06 09:00:00,
2013-01-06 02:05:00,40.1,18.8,30.18,ESE,110,1.0,2.0,42,0.00,,,0.00,Wunderground v.1.15,2013-01-06 09:05:00,
2013-01-06 02:10:00,40.6,18.7,30.18,SE,128,0.0,1.0,41,0.00,,,0.00,Wunderground v.1.15,2013-01-06 09:10:00,
2013-01-06 02:15:00,39.9,19.7,30.18,SE,128,0.0,1.0,44,0.00,,,0.00,Wunderground v.1.15,2013-01-06 09:15:00,
2013-01-06 02:20:00,39.1,20.0,30.18,SE,124,0.0,0.0,46,0.00,,,0.00,Wunderground v.1.15,2013-01-06 09:20:00,
2013-01-06 02:25:00,38.8,19.8,30.18,SE,124,0.0,1.0,46,0.00,,,0.00,Wunderground v.1.15,2013-01-06 09:25:00,
2013-01-06 02:30:00,38.9,20.4,30.18,SE,124,0.0,0.0,47,0.00,,,0.00,Wunderground v.1.15,2013-01-06 09:30:00,
2013-01-06 02:36:00,38.6,20.1,30.18,ESE,118,0.0,0.0,47,0.00,,,0.00,Wunderground v.1.15,2013-01-06 09:36:00,
2013-01-06 02:41:00,38.0,19.5,30.18,ESE,119,0.0,0.0,47,0.00,,,0.00,Wunderground v.1.15,2013-01-06 09:41:00,
2013-01-06 02:46:00,37.2,19.3,30.18,ESE,119,0.0,0.0,48,0.00,,,0.00,Wunderground v.1.15,2013-01-06 09:46:00,
2013-01-06 02:51:00,36.8,19.9,30.18,ESE,120,0.0,0.0,50,0.00,,,0.00,Wunderground v.1.15,2013-01-06 09:51:00,
2013-01-06 02:56:00,36.6,20.2,30.18,SE,129,0.0,0.0,51,0.00,,,0.00,Wunderground v.1.15,2013-01-06 09:56:00,
2013-01-06 03:01:00,36.8,19.9,30.18,SE,132,0.0,0.0,50,0.00,,,0.00,Wunderground v.1.15,2013-01-06 10:01:00,
2013-01-06 03:06:00,37.0,20.1,30.18,ESE,116,0.0,1.0,50,0.00,,,0.00,Wunderground v.1.15,2013-01-06 10:06:00,
2013-01-06 03:11:00,35.7,18.4,30.18,NW,308,0.0,1.0,49,0.00,,,0.00,Wunderground v.1.15,2013-01-06 10:11:00,
2013-01-06 03:16:00,34.8,17.6,30.18,NW,321,1.0,1.0,49,0.00,,,0.00,Wunderground v.1.15,2013-01-06 10:16:00,
2013-01-06 03:21:00,34.6,18.8,30.18,NNW,330,0.0,1.0,52,0.00,,,0.00,Wunderground v.1.15,2013-01-06 10:21:00,
2013-01-06 03:26:00,34.1,19.6,30.18,WNW,285,1.0,2.0,55,0.00,,,0.00,Wunderground v.1.15,2013-01-06 10:26:00,
2013-01-06 03:31:00,33.7,20.1,30.18,WNW,287,0.0,0.0,57,0.00,,,0.00,Wunderground v.1.15,2013-01-06 10:31:00,
2013-01-06 03:36:00,33.8,18.9,30.18,ENE,73,0.0,1.0,54,0.00,,,0.00,Wunderground v.1.15,2013-01-06 10:36:00,
2013-01-06 03:41:00,34.4,19.0,30.17,East,97,1.0,2.0,53,0.00,,,0.00,Wunderground v.1.15,2013-01-06 10:41:00,
2013-01-06 03:46:00,34.7,19.3,30.17,East,94,0.0,2.0,53,0.00,,,0.00,Wunderground v.1.15,2013-01-06 10:46:00,
2013-01-06 03:51:00,35.2,19.3,30.17,ENE,70,1.0,1.0,52,0.00,,,0.00,Wunderground v.1.15,2013-01-06 10:51:00,
2013-01-06 03:56:00,35.6,19.2,30.17,ESE,104,0.0,2.0,51,0.00,,,0.00,Wunderground v.1.15,2013-01-06 10:56:00,
2013-01-06 04:01:00,35.6,20.1,30.17,ESE,110,0.0,1.0,53,0.00,,,0.00,Wunderground v.1.15,2013-01-06 11:01:00,
2013-01-06 04:06:00,35.4,19.9,30.17,ESE,111,0.0,1.0,53,0.00,,,0.00,Wunderground v.1.15,2013-01-06 11:06:00,
2013-01-06 04:11:00,35.3,20.3,30.16,ESE,117,0.0,1.0,54,0.00,,,0.00,Wunderground v.1.15,2013-01-06 11:11:00,
2013-01-06 04:16:00,35.2,20.6,30.17,ESE,120,0.0,1.0,55,0.00,,,0.00,Wunderground v.1.15,2013-01-06 11:16:00,
2013-01-06 04:21:00,35.5,20.5,30.16,SE,125,0.0,1.0,54,0.00,,,0.00,Wunderground v.1.15,2013-01-06 11:21:00,
2013-01-06 04:26:00,35.7,21.1,30.16,ESE,122,1.0,2.0,55,0.00,,,0.00,Wunderground v.1.15,2013-01-06 11:26:00,
2013-01-06 04:31:00,36.1,21.0,30.16,ESE,108,0.0,1.0,54,0.00,,,0.00,Wunderground v.1.15,2013-01-06 11:31:00,
2013-01-06 04:36:00,35.8,21.2,30.15,ENE,65,0.0,1.0,55,0.00,,,0.00,Wunderground v.1.15,2013-01-06 11:36:00,
2013-01-06 04:41:00,34.8,19.4,30.15,NW,326,0.0,0.0,53,0.00,,,0.00,Wunderground v.1.15,2013-01-06 11:41:00,
2013-01-06 04:46:00,33.9,17.7,30.16,NW,311,1.0,1.0,51,0.00,,,0.00,Wunderground v.1.15,2013-01-06 11:46:00,
2013-01-06 04:52:00,33.2,18.3,30.15,WNW,302,0.0,0.0,54,0.00,,,0.00,Wunderground v.1.15,2013-01-06 11:52:00,
2013-01-06 04:57:00,33.1,19.1,30.16,NW,307,0.0,0.0,56,0.00,,,0.00,Wunderground v.1.15,2013-01-06 11:57:00,
2013-01-06 05:02:00,33.0,19.0,30.16,NW,306,0.0,0.0,56,0.00,,,0.00,Wunderground v.1.15,2013-01-06 12:02:00,
2013-01-06 05:07:00,33.3,19.7,30.15,East,95,0.0,1.0,57,0.00,,,0.00,Wunderground v.1.15,2013-01-06 12:07:00,
2013-01-06 05:12:00,33.4,19.8,30.16,East,95,0.0,0.0,57,0.00,,,0.00,Wunderground v.1.15,2013-01-06 12:12:00,
2013-01-06 05:17:00,33.5,20.3,30.16,ESE,116,0.0,0.0,58,0.00,,,0.00,Wunderground v.1.15,2013-01-06 12:17:00,
2013-01-06 05:22:00,33.6,20.4,30.16,ESE,117,0.0,0.0,58,0.00,,,0.00,Wunderground v.1.15,2013-01-06 12:22:00,
2013-01-06 05:27:00,33.6,20.8,30.16,ESE,116,0.0,0.0,59,0.00,,,0.00,Wunderground v.1.15,2013-01-06 12:27:00,
2013-01-06 05:32:00,33.7,21.3,30.15,ESE,116,0.0,0.0,60,0.00,,,0.00,Wunderground v.1.15,2013-01-06 12:32:00,
2013-01-06 05:37:00,33.7,21.3,30.16,ESE,111,0.0,0.0,60,0.00,,,0.00,Wunderground v.1.15,2013-01-06 12:37:00,
2013-01-06 05:42:00,33.7,21.7,30.15,ESE,113,0.0,1.0,61,0.00,,,0.00,Wunderground v.1.15,2013-01-06 12:42:00,
2013-01-06 05:47:00,34.3,22.2,30.15,ESE,113,0.0,1.0,61,0.00,,,0.00,Wunderground v.1.15,2013-01-06 12:47:00,
2013-01-06 05:52:00,34.9,22.0,30.15,ESE,111,0.0,1.0,59,0.00,,,0.00,Wunderground v.1.15,2013-01-06 12:52:00,
2013-01-06 05:57:00,35.4,22.5,30.15,East,100,1.0,1.0,59,0.00,,,0.00,Wunderground v.1.15,2013-01-06 12:57:00,
2013-01-06 06:02:00,35.5,22.6,30.14,ESE,113,1.0,1.0,59,0.00,,,0.00,Wunderground v.1.15,2013-01-06 13:02:00,
2013-01-06 06:07:00,35.9,22.1,30.14,ESE,116,1.0,2.0,57,0.00,,,0.00,Wunderground v.1.15,2013-01-06 13:07:00,
2013-01-06 06:12:00,36.6,22.4,30.13,ESE,110,1.0,1.0,56,0.00,,,0.00,Wunderground v.1.15,2013-01-06 13:12:00,
2013-01-06 06:17:00,37.2,22.1,30.14,ESE,113,0.0,1.0,54,0.00,,,0.00,Wunderground v.1.15,2013-01-06 13:17:00,
2013-01-06 06:22:00,36.5,21.0,30.14,North,355,1.0,2.0,53,0.00,,,0.00,Wunderground v.1.15,2013-01-06 13:22:00,
2013-01-06 06:27:00,34.4,18.1,30.13,North,3,2.0,2.0,51,0.00,,,0.00,Wunderground v.1.15,2013-01-06 13:27:00,
2013-01-06 06:32:00,33.5,19.5,30.13,NNE,20,0.0,1.0,56,0.00,,,0.00,Wunderground v.1.15,2013-01-06 13:32:00,
2013-01-06 06:37:00,33.6,20.0,30.13,NNE,20,0.0,1.0,57,0.00,,,0.00,Wunderground v.1.15,2013-01-06 13:37:00,
2013-01-06 06:42:00,33.8,19.7,30.13,North,11,0.0,0.0,56,0.00,,,0.00,Wunderground v.1.15,2013-01-06 13:42:00,
2013-01-06 06:47:00,33.9,20.7,30.13,NNE,18,0.0,0.0,58,0.00,,,0.00,Wunderground v.1.15,2013-01-06 13:47:00,
2013-01-06 06:52:00,34.1,20.4,30.13,NNE,18,0.0,0.0,57,0.00,,,0.00,Wunderground v.1.15,2013-01-06 13:52:00,
2013-01-06 06:57:00,34.3,20.2,30.13,NNE,15,0.0,0.0,56,0.00,,,0.00,Wunderground v.1.15,2013-01-06 13:57:00,
2013-01-06 07:02:00,34.0,19.5,30.14,West,259,0.0,0.0,55,0.00,,,0.00,Wunderground v.1.15,2013-01-06 14:02:00,
2013-01-06 07:07:00,33.9,19.8,30.14,West,263,0.0,0.0,56,0.00,,,0.00,Wunderground v.1.15,2013-01-06 14:07:00,
2013-01-06 07:12:00,33.8,19.7,30.14,WSW,256,0.0,1.0,56,0.00,,,0.00,Wunderground v.1.15,2013-01-06 14:12:00,
2013-01-06 07:17:00,33.7,19.7,30.15,WSW,246,0.0,1.0,56,0.00,,,0.00,Wunderground v.1.15,2013-01-06 14:17:00,
2013-01-06 07:22:00,33.6,20.0,30.14,East,101,0.0,1.0,57,0.00,,,0.00,Wunderground v.1.15,2013-01-06 14:22:00,
2013-01-06 07:27:00,34.2,20.9,30.14,East,89,0.0,1.0,58,0.00,,,0.00,Wunderground v.1.15,2013-01-06 14:27:00,
2013-01-06 07:32:00,34.8,21.1,30.15,ENE,70,0.0,2.0,57,0.00,,,0.00,Wunderground v.1.15,2013-01-06 14:32:00,
2013-01-06 07:37:00,35.6,21.9,30.14,ENE,68,2.0,2.0,57,0.00,,,0.00,Wunderground v.1.15,2013-01-06 14:37:00,
2013-01-06 07:42:00,36.1,21.5,30.14,East,84,0.0,2.0,55,0.00,,,0.00,Wunderground v.1.15,2013-01-06 14:42:00,
2013-01-06 07:47:00,36.6,21.5,30.14,ENE,78,1.0,2.0,54,0.00,,,0.00,Wunderground v.1.15,2013-01-06 14:47:00,
2013-01-06 07:52:00,37.2,21.2,30.14,East,95,0.0,2.0,52,0.00,,,0.00,Wunderground v.1.15,2013-01-06 14:52:00,
2013-01-06 07:57:00,37.6,21.5,30.14,ESE,109,0.0,2.0,52,0.00,,,0.00,Wunderground v.1.15,2013-01-06 14:57:00,
2013-01-06 08:02:00,37.6,21.5,30.15,West,264,3.0,3.0,52,0.00,,,0.00,Wunderground v.1.15,2013-01-06 15:02:00,
2013-01-06 08:07:00,36.3,20.8,30.14,West,273,0.0,3.0,53,0.00,,,0.00,Wunderground v.1.15,2013-01-06 15:07:00,
2013-01-06 08:12:00,35.8,20.8,30.14,West,274,0.0,1.0,54,0.00,,,0.00,Wunderground v.1.15,2013-01-06 15:12:00,
2013-01-06 08:17:00,35.6,21.0,30.14,ENE,75,0.0,1.0,55,0.00,,,0.00,Wunderground v.1.15,2013-01-06 15:17:00,
2013-01-06 08:22:00,35.5,20.9,30.14,ENE,73,0.0,0.0,55,0.00,,,0.00,Wunderground v.1.15,2013-01-06 15:22:00,
2013-01-06 08:27:00,35.3,20.7,30.14,West,278,0.0,1.0,55,0.00,,,0.00,Wunderground v.1.15,2013-01-06 15:27:00,
2013-01-06 08:33:00,35.2,21.1,30.14,West,267,0.0,0.0,56,0.00,,,0.00,Wunderground v.1.15,2013-01-06 15:33:00,
2013-01-06 08:38:00,35.3,21.6,30.13,NW,318,0.0,0.0,57,0.00,,,0.00,Wunderground v.1.15,2013-01-06 15:38:00,
2013-01-06 08:43:00,35.6,21.0,30.14,WSW,243,0.0,1.0,55,0.00,,,0.00,Wunderground v.1.15,2013-01-06 15:43:00,
2013-01-06 08:48:00,35.7,21.1,30.14,WSW,242,0.0,1.0,55,0.00,,,0.00,Wunderground v.1.15,2013-01-06 15:48:00,
2013-01-06 08:53:00,35.5,21.3,30.14,WSW,240,0.0,0.0,56,0.00,,,0.00,Wunderground v.1.15,2013-01-06 15:53:00,
2013-01-06 08:58:00,35.5,21.3,30.14,WSW,257,1.0,1.0,56,0.00,,,0.00,Wunderground v.1.15,2013-01-06 15:58:00,
2013-01-06 09:03:00,34.9,21.2,30.15,WSW,245,0.0,3.0,57,0.00,,,0.00,Wunderground v.1.15,2013-01-06 16:03:00,
2013-01-06 09:08:00,34.9,22.0,30.15,WSW,248,0.0,3.0,59,0.00,,,0.00,Wunderground v.1.15,2013-01-06 16:08:00,
2013-01-06 09:13:00,35.9,24.1,30.15,WSW,248,0.0,1.0,62,0.00,,,0.00,Wunderground v.1.15,2013-01-06 16:13:00,
2013-01-06 09:18:00,36.6,24.0,30.15,West,281,0.0,2.0,60,0.00,,,0.00,Wunderground v.1.15,2013-01-06 16:18:00,
2013-01-06 09:23:00,37.2,23.8,30.16,NNW,338,0.0,2.0,58,0.00,,,0.00,Wunderground v.1.15,2013-01-06 16:23:00,
2013-01-06 09:28:00,38.0,24.1,30.16,NNW,347,0.0,2.0,57,0.00,,,0.00,Wunderground v.1.15,2013-01-06 16:28:00,
2013-01-06 09:33:00,39.1,23.8,30.17,NNW,347,0.0,1.0,54,0.00,,,0.00,Wunderground v.1.15,2013-01-06 16:33:00,
2013-01-06 09:38:00,39.7,24.0,30.17,ENE,78,1.0,2.0,53,0.00,,,0.00,Wunderground v.1.15,2013-01-06 16:38:00,
2013-01-06 09:43:00,41.1,24.3,30.16,East,86,2.0,2.0,51,0.00,,,0.00,Wunderground v.1.15,2013-01-06 16:43:00,
2013-01-06 09:48:00,41.4,23.6,30.16,ENE,75,0.0,2.0,49,0.00,,,0.00,Wunderground v.1.15,2013-01-06 16:48:00,
2013-01-06 09:53:00,41.9,23.6,30.17,NNE,27,0.0,1.0,48,0.00,,,0.00,Wunderground v.1.15,2013-01-06 16:53:00,
2013-01-06 09:58:00,42.1,23.3,30.16,NE,41,0.0,1.0,47,0.00,,,0.00,Wunderground v.1.15,2013-01-06 16:58:00,
2013-01-06 10:03:00,43.1,23.7,30.16,East,82,0.0,1.0,46,0.00,,,0.00,Wunderground v.1.15,2013-01-06 17:03:00,
2013-01-06 10:08:00,43.8,23.8,30.17,East,96,1.0,1.0,45,0.00,,,0.00,Wunderground v.1.15,2013-01-06 17:08:00,
2013-01-06 10:13:00,44.4,23.8,30.16,ENE,75,1.0,1.0,44,0.00,,,0.00,Wunderground v.1.15,2013-01-06 17:13:00,
2013-01-06 10:18:00,44.8,23.1,30.16,North,349,1.0,1.0,42,0.00,,,0.00,Wunderground v.1.15,2013-01-06 17:18:00,
2013-01-06 10:23:00,44.9,22.6,30.16,North,349,0.0,1.0,41,0.00,,,0.00,Wunderground v.1.15,2013-01-06 17:23:00,
2013-01-06 10:28:00,45.5,23.1,30.16,North,349,0.0,1.0,41,0.00,,,0.00,Wunderground v.1.15,2013-01-06 17:28:00,
2013-01-06 10:34:00,46.5,22.2,30.16,North,359,0.0,3.0,38,0.00,,,0.00,Wunderground v.1.15,2013-01-06 17:34:00,
2013-01-06 10:39:00,47.1,22.1,30.16,NNE,15,0.0,4.0,37,0.00,,,0.00,Wunderground v.1.15,2013-01-06 17:39:00,
2013-01-06 10:44:00,48.0,22.3,30.15,ENE,61,1.0,2.0,36,0.00,,,0.00,Wunderground v.1.15,2013-01-06 17:44:00,
2013-01-06 10:49:00,48.8,21.6,30.15,East,84,0.0,3.0,34,0.00,,,0.00,Wunderground v.1.15,2013-01-06 17:49:00,
2013-01-06 10:54:00,49.5,22.3,30.15,NNW,332,1.0,2.0,34,0.00,,,0.00,Wunderground v.1.15,2013-01-06 17:54:00,
2013-01-06 10:59:00,50.3,22.3,30.14,East,87,0.0,3.0,33,0.00,,,0.00,Wunderground v.1.15,2013-01-06 17:59:00,
2013-01-06 11:04:00,50.7,21.9,30.14,North,359,1.0,2.0,32,0.00,,,0.00,Wunderground v.1.15,2013-01-06 18:04:00,
2013-01-06 11:09:00,50.8,22.0,30.14,North,351,0.0,2.0,32,0.00,,,0.00,Wunderground v.1.15,2013-01-06 18:09:00,
2013-01-06 11:14:00,51.1,22.2,30.13,NNW,344,0.0,2.0,32,0.00,,,0.00,Wunderground v.1.15,2013-01-06 18:14:00,
2013-01-06 11:19:00,51.8,22.8,30.13,ENE,65,0.0,2.0,32,0.00,,,0.00,Wunderground v.1.15,2013-01-06 18:19:00,
2013-01-06 11:24:00,52.8,22.2,30.13,West,270,1.0,1.0,30,0.00,,,0.00,Wunderground v.1.15,2013-01-06 18:24:00,
2013-01-06 11:29:00,53.4,22.7,30.12,NW,308,1.0,1.0,30,0.00,,,0.00,Wunderground v.1.15,2013-01-06 18:29:00,
2013-01-06 11:34:00,53.7,22.2,30.12,North,359,1.0,2.0,29,0.00,,,0.00,Wunderground v.1.15,2013-01-06 18:34:00,
2013-01-06 11:39:00,53.9,22.3,30.11,West,266,1.0,3.0,29,0.00,,,0.00,Wunderground v.1.15,2013-01-06 18:39:00,
2013-01-06 11:44:00,53.6,22.9,30.11,WSW,240,1.0,3.0,30,0.00,,,0.00,Wunderground v.1.15,2013-01-06 18:44:00,
2013-01-06 11:49:00,53.7,23.7,30.11,WNW,285,3.0,5.0,31,0.00,,,0.00,Wunderground v.1.15,2013-01-06 18:49:00,
2013-01-06 11:54:00,53.8,23.8,30.10,SW,214,2.0,5.0,31,0.00,,,0.00,Wunderground v.1.15,2013-01-06 18:54:00,
2013-01-06 11:59:00,53.9,22.3,30.10,WSW,242,0.0,5.0,29,0.00,,,0.00,Wunderground v.1.15,2013-01-06 18:59:00,
2013-01-06 12:04:00,54.3,22.7,30.09,West,266,1.0,3.0,29,0.00,,,0.00,Wunderground v.1.15,2013-01-06 19:04:00,
2013-01-06 12:09:00,54.6,22.1,30.09,SW,236,0.0,3.0,28,0.00,,,0.00,Wunderground v.1.15,2013-01-06 19:09:00,
2013-01-06 12:14:00,55.4,22.8,30.09,West,275,1.0,4.0,28,0.00,,,0.00,Wunderground v.1.15,2013-01-06 19:14:00,
2013-01-06 12:19:00,55.5,22.0,30.08,WNW,282,2.0,4.0,27,0.00,,,0.00,Wunderground v.1.15,2013-01-06 19:19:00,
2013-01-06 12:25:00,56.3,24.4,30.08,SSE,149,0.0,2.0,29,0.00,,,0.00,Wunderground v.1.15,2013-01-06 19:25:00,
2013-01-06 12:30:00,57.2,22.6,30.07,NW,321,0.0,0.0,26,0.00,,,0.00,Wunderground v.1.15,2013-01-06 19:30:00,
2013-01-06 12:35:00,58.0,23.3,30.07,ESE,107,1.0,1.0,26,0.00,,,0.00,Wunderground v.1.15,2013-01-06 19:35:00,
2013-01-06 12:40:00,58.7,21.0,30.06,ESE,106,0.0,0.0,23,0.00,,,0.00,Wunderground v.1.15,2013-01-06 19:40:00,
2013-01-06 12:45:00,59.5,20.6,30.06,SW,224,0.0,2.0,22,0.00,,,0.00,Wunderground v.1.15,2013-01-06 19:45:00,
2013-01-06 12:50:00,59.6,20.7,30.06,WSW,248,1.0,2.0,22,0.00,,,0.00,Wunderground v.1.15,2013-01-06 19:50:00,
2013-01-06 12:55:00,59.1,21.3,30.05,SE,131,2.0,4.0,23,0.00,,,0.00,Wunderground v.1.15,2013-01-06 19:55:00,
2013-01-06 13:00:00,58.9,22.1,30.06,WSW,252,0.0,2.0,24,0.00,,,0.00,Wunderground v.1.15,2013-01-06 20:00:00,
2013-01-06 13:05:00,59.5,20.6,30.05,SSW,195,1.0,4.0,22,0.00,,,0.00,Wunderground v.1.15,2013-01-06 20:05:00,
2013-01-06 13:10:00,60.2,23.2,30.05,SW,226,2.0,4.0,24,0.00,,,0.00,Wunderground v.1.15,2013-01-06 20:10:00,
2013-01-06 13:11:00,60.4,22.4,30.05,SE,141,0.0,4.0,23,0.00,,,0.00,Wunderground v.1.15,2013-01-06 20:11:00,
2013-01-06 13:13:00,60.6,22.6,30.05,SE,143,2.0,4.0,23,0.00,,,0.00,Wunderground v.1.15,2013-01-06 20:13:00,
2013-01-06 13:18:00,61.3,22.1,30.04,South,188,0.0,4.0,22,0.00,,,0.00,Wunderground v.1.15,2013-01-06 20:18:00,
2013-01-06 13:23:00,62.1,22.8,30.03,South,183,1.0,2.0,22,0.00,,,0.00,Wunderground v.1.15,2013-01-06 20:23:00,
2013-01-06 13:28:00,62.7,24.3,30.03,East,96,0.0,2.0,23,0.00,,,0.00,Wunderground v.1.15,2013-01-06 20:28:00,
2013-01-06 13:33:00,62.4,23.0,30.03,WNW,285,1.0,2.0,22,0.00,,,0.00,Wunderground v.1.15,2013-01-06 20:33:00,
2013-01-06 13:38:00,62.9,24.5,30.03,ESE,107,0.0,2.0,23,0.00,,,0.00,Wunderground v.1.15,2013-01-06 20:38:00,
2013-01-06 13:43:00,62.9,21.2,30.02,WSW,256,5.0,6.0,20,0.00,,,0.00,Wunderground v.1.15,2013-01-06 20:43:00,
2013-01-06 13:48:00,62.4,21.9,30.02,WSW,239,1.0,7.0,21,0.00,,,0.00,Wunderground v.1.15,2013-01-06 20:48:00,
2013-01-06 13:53:00,62.8,22.2,30.02,SSE,152,0.0,3.0,21,0.00,,,0.00,Wunderground v.1.15,2013-01-06 20:53:00,
2013-01-06 13:58:00,62.6,20.9,30.02,SSE,160,3.0,6.0,20,0.00,,,0.00,Wunderground v.1.15,2013-01-06 20:58:00,
2013-01-06 14:01:00,62.7,22.2,30.02,SW,225,3.0,4.0,21,0.00,,,0.00,Wunderground v.1.15,2013-01-06 21:01:00,
2013-01-06 14:06:00,63.2,21.4,30.01,SW,217,0.0,4.0,20,0.00,,,0.00,Wunderground v.1.15,2013-01-06 21:06:00,
2013-01-06 14:11:00,63.5,21.7,30.01,WSW,255,2.0,4.0,20,0.00,,,0.00,Wunderground v.1.15,2013-01-06 21:11:00,
2013-01-06 14:16:00,64.0,22.1,30.01,SW,232,4.0,4.0,20,0.00,,,0.00,Wunderground v.1.15,2013-01-06 21:16:00,
2013-01-06 14:20:00,63.8,20.7,30.01,WSW,256,1.0,5.0,19,0.00,,,0.00,Wunderground v.1.15,2013-01-06 21:20:00,
2013-01-06 14:25:00,63.2,21.4,30.01,WSW,238,5.0,9.0,20,0.00,,,0.00,Wunderground v.1.15,2013-01-06 21:25:00,
2013-01-06 14:30:00,62.4,20.8,30.01,WSW,238,6.0,6.0,20,0.00,,,0.00,Wunderground v.1.15,2013-01-06 21:30:00,
2013-01-06 14:35:00,62.3,20.7,30.01,SW,228,1.0,6.0,20,0.00,,,0.00,Wunderground v.1.15,2013-01-06 21:35:00,
2013-01-06 14:40:00,62.3,20.7,30.01,West,280,8.0,8.0,20,0.00,,,0.00,Wunderground v.1.15,2013-01-06 21:40:00,
2013-01-06 14:46:00,61.9,21.5,30.01,West,262,4.0,9.0,21,0.00,,,0.00,Wunderground v.1.15,2013-01-06 21:46:00,
2013-01-06 14:51:00,61.6,21.2,30.01,West,268,5.0,8.0,21,0.00,,,0.00,Wunderground v.1.15,2013-01-06 21:51:00,
2013-01-06 14:56:00,61.4,22.2,30.01,WSW,238,0.0,8.0,22,0.00,,,0.00,Wunderground v.1.15,2013-01-06 21:56:00,
2013-01-06 15:01:00,61.4,22.2,30.01,West,269,5.0,7.0,22,0.00,,,0.00,Wunderground v.1.15,2013-01-06 22:01:00,
2013-01-06 15:06:00,61.3,22.1,30.01,West,266,3.0,7.0,22,0.00,,,0.00,Wunderground v.1.15,2013-01-06 22:06:00,
2013-01-06 15:11:00,61.4,23.2,30.01,West,281,1.0,6.0,23,0.00,,,0.00,Wunderground v.1.15,2013-01-06 22:11:00,
2013-01-06 15:16:00,61.9,23.6,30.01,West,259,2.0,6.0,23,0.00,,,0.00,Wunderground v.1.15,2013-01-06 22:16:00,
2013-01-06 15:21:00,62.1,22.8,30.00,WNW,288,2.0,4.0,22,0.00,,,0.00,Wunderground v.1.15,2013-01-06 22:21:00,
2013-01-06 15:26:00,62.1,23.8,30.00,West,274,3.0,6.0,23,0.00,,,0.00,Wunderground v.1.15,2013-01-06 22:26:00,
2013-01-06 15:31:00,62.4,24.1,30.00,West,268,4.0,5.0,23,0.00,,,0.00,Wunderground v.1.15,2013-01-06 22:31:00,
2013-01-06 15:36:00,62.4,23.0,30.00,West,281,3.0,5.0,22,0.00,,,0.00,Wunderground v.1.15,2013-01-06 22:36:00,
2013-01-06 15:41:00,62.6,24.2,30.00,WNW,297,3.0,5.0,23,0.00,,,0.00,Wunderground v.1.15,2013-01-06 22:41:00,
2013-01-06 15:46:00,62.3,22.9,30.00,West,276,2.0,7.0,22,0.00,,,0.00,Wunderground v.1.15,2013-01-06 22:46:00,
2013-01-06 15:51:00,62.2,23.9,30.00,WSW,240,1.0,3.0,23,0.00,,,0.00,Wunderground v.1.15,2013-01-06 22:51:00,
2013-01-06 15:56:00,62.3,24.0,30.00,WNW,284,4.0,6.0,23,0.00,,,0.00,Wunderground v.1.15,2013-01-06 22:56:00,
2013-01-06 16:01:00,62.2,25.9,29.99,WNW,300,5.0,8.0,25,0.00,,,0.00,Wunderground v.1.15,2013-01-06 23:01:00,
2013-01-06 16:06:00,61.9,26.6,29.99,West,264,2.0,8.0,26,0.00,,,0.00,Wunderground v.1.15,2013-01-06 23:06:00,
2013-01-06 16:11:00,62.0,25.7,29.99,WNW,293,2.0,4.0,25,0.00,,,0.00,Wunderground v.1.15,2013-01-06 23:11:00,
2013-01-06 16:16:00,62.0,25.7,29.99,West,281,3.0,7.0,25,0.00,,,0.00,Wunderground v.1.15,2013-01-06 23:16:00,
2013-01-06 16:21:00,62.0,25.7,29.99,West,281,4.0,7.0,25,0.00,,,0.00,Wunderground v.1.15,2013-01-06 23:21:00,
2013-01-06 16:26:00,61.8,24.6,29.99,West,276,2.0,7.0,24,0.00,,,0.00,Wunderground v.1.15,2013-01-06 23:26:00,
2013-01-06 16:31:00,61.7,24.5,29.99,NW,316,4.0,5.0,24,0.00,,,0.00,Wunderground v.1.15,2013-01-06 23:31:00,
2013-01-06 16:36:00,61.6,24.4,29.99,NW,316,4.0,6.0,24,0.00,,,0.00,Wunderground v.1.15,2013-01-06 23:36:00,
2013-01-06 16:41:00,61.6,24.4,29.99,WNW,291,3.0,4.0,24,0.00,,,0.00,Wunderground v.1.15,2013-01-06 23:41:00,
2013-01-06 16:46:00,61.3,25.1,29.99,NNW,333,6.0,7.0,25,0.00,,,0.00,Wunderground v.1.15,2013-01-06 23:46:00,
2013-01-06 16:51:00,61.1,25.0,29.99,NNW,340,4.0,7.0,25,0.00,,,0.00,Wunderground v.1.15,2013-01-06 23:51:00,
2013-01-06 16:56:00,60.7,24.6,29.99,NNW,341,5.0,7.0,25,0.00,,,0.00,Wunderground v.1.15,2013-01-06 23:56:00,
2013-01-06 17:01:00,60.3,24.3,29.99,NNW,327,4.0,6.0,25,0.00,,,0.00,Wunderground v.1.15,2013-01-07 00:01:00,
2013-01-06 17:06:00,59.9,23.9,29.99,NW,311,3.0,6.0,25,0.00,,,0.00,Wunderground v.1.15,2013-01-07 00:06:00,
2013-01-06 17:11:00,59.5,23.6,29.99,NW,304,1.0,3.0,25,0.00,,,0.00,Wunderground v.1.15,2013-01-07 00:11:00,
2013-01-06 17:16:00,59.1,22.3,29.99,WNW,302,0.0,3.0,24,0.00,,,0.00,Wunderground v.1.15,2013-01-07 00:16:00,
2013-01-06 17:21:00,58.8,22.0,29.99,WNW,302,0.0,1.0,24,0.00,,,0.00,Wunderground v.1.15,2013-01-07 00:21:00,
2013-01-06 17:26:00,58.6,22.8,29.98,WNW,302,0.0,1.0,25,0.00,,,0.00,Wunderground v.1.15,2013-01-07 00:26:00,
2013-01-06 17:31:00,58.7,22.0,29.98,WNW,302,0.0,0.0,24,0.00,,,0.00,Wunderground v.1.15,2013-01-07 00:31:00,
2013-01-06 17:36:00,58.7,22.9,29.98,WNW,302,0.0,0.0,25,0.00,,,0.00,Wunderground v.1.15,2013-01-07 00:36:00,
2013-01-06 17:41:00,58.7,22.9,29.98,WNW,302,0.0,0.0,25,0.00,,,0.00,Wunderground v.1.15,2013-01-07 00:41:00,
2013-01-06 17:46:00,58.2,24.3,29.98,WNW,302,0.0,0.0,27,0.00,,,0.00,Wunderground v.1.15,2013-01-07 00:46:00,
2013-01-06 17:51:00,57.6,23.8,29.98,WNW,302,0.0,0.0,27,0.00,,,0.00,Wunderground v.1.15,2013-01-07 00:51:00,
2013-01-06 17:57:00,57.4,22.8,29.98,WNW,302,0.0,0.0,26,0.00,,,0.00,Wunderground v.1.15,2013-01-07 00:57:00,
2013-01-06 18:01:00,57.2,22.6,29.98,WNW,302,0.0,0.0,26,0.00,,,0.00,Wunderground v.1.15,2013-01-07 01:01:00,
2013-01-06 18:06:00,57.1,22.5,29.98,WNW,302,0.0,0.0,26,0.00,,,0.00,Wunderground v.1.15,2013-01-07 01:06:00,
2013-01-06 18:11:00,56.8,22.2,29.98,WNW,302,0.0,0.0,26,0.00,,,0.00,Wunderground v.1.15,2013-01-07 01:11:00,
2013-01-06 18:17:00,56.7,23.0,29.98,WNW,302,0.0,0.0,27,0.00,,,0.00,Wunderground v.1.15,2013-01-07 01:17:00,
2013-01-06 18:22:00,56.5,23.7,29.98,WNW,302,0.0,0.0,28,0.00,,,0.00,Wunderground v.1.15,2013-01-07 01:22:00,
2013-01-06 18:27:00,56.2,22.6,29.98,WNW,302,0.0,0.0,27,0.00,,,0.00,Wunderground v.1.15,2013-01-07 01:27:00,
2013-01-06 18:32:00,56.0,25.0,29.98,WNW,302,0.0,0.0,30,0.00,,,0.00,Wunderground v.1.15,2013-01-07 01:32:00,
2013-01-06 18:37:00,56.1,25.1,29.98,WNW,290,0.0,1.0,30,0.00,,,0.00,Wunderground v.1.15,2013-01-07 01:37:00,
2013-01-06 18:42:00,56.0,26.5,29.98,West,277,0.0,0.0,32,0.00,,,0.00,Wunderground v.1.15,2013-01-07 01:42:00,
2013-01-06 18:47:00,55.7,23.9,29.98,West,277,0.0,0.0,29,0.00,,,0.00,Wunderground v.1.15,2013-01-07 01:47:00,
2013-01-06 18:52:00,55.1,25.7,29.98,West,277,0.0,0.0,32,0.00,,,0.00,Wunderground v.1.15,2013-01-07 01:52:00,
2013-01-06 18:57:00,54.6,25.3,29.98,ESE,122,0.0,1.0,32,0.00,,,0.00,Wunderground v.1.15,2013-01-07 01:57:00,
2013-01-06 19:02:00,54.2,25.7,29.98,ESE,110,0.0,0.0,33,0.00,,,0.00,Wunderground v.1.15,2013-01-07 02:02:00,
2013-01-06 19:07:00,53.9,26.1,29.98,ESE,110,0.0,1.0,34,0.00,,,0.00,Wunderground v.1.15,2013-01-07 02:07:00,
2013-01-06 19:12:00,53.6,24.4,29.98,SSE,149,0.0,1.0,32,0.00,,,0.00,Wunderground v.1.15,2013-01-07 02:12:00,
2013-01-06 19:17:00,53.4,23.5,29.98,SSE,163,0.0,1.0,31,0.00,,,0.00,Wunderground v.1.15,2013-01-07 02:17:00,
2013-01-06 19:22:00,53.5,22.8,29.98,SSE,162,0.0,1.0,30,0.00,,,0.00,Wunderground v.1.15,2013-01-07 02:22:00,
2013-01-06 19:27:00,53.4,23.5,29.98,SE,143,0.0,1.0,31,0.00,,,0.00,Wunderground v.1.15,2013-01-07 02:27:00,
2013-01-06 19:32:00,52.7,22.9,29.98,SE,143,0.0,0.0,31,0.00,,,0.00,Wunderground v.1.15,2013-01-07 02:32:00,
2013-01-06 19:37:00,52.6,22.8,29.98,SE,124,0.0,1.0,31,0.00,,,0.00,Wunderground v.1.15,2013-01-07 02:37:00,
2013-01-06 19:43:00,52.5,23.5,29.98,SE,132,0.0,1.0,32,0.00,,,0.00,Wunderground v.1.15,2013-01-07 02:43:00,
2013-01-06 19:48:00,52.1,24.6,29.98,SE,143,0.0,1.0,34,0.00,,,0.00,Wunderground v.1.15,2013-01-07 02:48:00,
2013-01-06 19:53:00,51.6,24.8,29.98,WSW,256,0.0,1.0,35,0.00,,,0.00,Wunderground v.1.15,2013-01-07 02:53:00,
2013-01-06 19:58:00,51.0,25.6,29.98,South,169,0.0,1.0,37,0.00,,,0.00,Wunderground v.1.15,2013-01-07 02:58:00,
2013-01-06 20:03:00,50.6,25.9,29.98,South,184,0.0,1.0,38,0.00,,,0.00,Wunderground v.1.15,2013-01-07 03:03:00,
2013-01-06 20:08:00,50.3,25.6,29.98,SSE,160,0.0,1.0,38,0.00,,,0.00,Wunderground v.1.15,2013-01-07 03:08:00,
2013-01-06 20:13:00,50.1,26.1,29.98,SSE,155,0.0,0.0,39,0.00,,,0.00,Wunderground v.1.15,2013-01-07 03:13:00,
2013-01-06 20:18:00,49.9,25.9,29.98,ESE,117,0.0,1.0,39,0.00,,,0.00,Wunderground v.1.15,2013-01-07 03:18:00,
2013-01-06 20:23:00,49.7,25.1,29.97,ESE,117,0.0,0.0,38,0.00,,,0.00,Wunderground v.1.15,2013-01-07 03:23:00,
2013-01-06 20:28:00,49.7,24.5,29.97,ESE,113,0.0,1.0,37,0.00,,,0.00,Wunderground v.1.15,2013-01-07 03:28:00,
2013-01-06 20:33:00,49.7,23.8,29.97,ESE,111,0.0,1.0,36,0.00,,,0.00,Wunderground v.1.15,2013-01-07 03:33:00,
2013-01-06 20:38:00,49.5,23.6,29.98,East,89,1.0,1.0,36,0.00,,,0.00,Wunderground v.1.15,2013-01-07 03:38:00,
2013-01-06 20:43:00,50.1,23.5,29.97,ESE,104,0.0,1.0,35,0.00,,,0.00,Wunderground v.1.15,2013-01-07 03:43:00,
2013-01-06 20:48:00,50.5,23.1,29.98,ESE,106,1.0,1.0,34,0.00,,,0.00,Wunderground v.1.15,2013-01-07 03:48:00,
2013-01-06 20:53:00,50.5,22.4,29.98,ESE,106,0.0,0.0,33,0.00,,,0.00,Wunderground v.1.15,2013-01-07 03:53:00,
2013-01-06 20:58:00,50.2,24.2,29.97,ESE,105,0.0,0.0,36,0.00,,,0.00,Wunderground v.1.15,2013-01-07 03:58:00,
2013-01-06 21:03:00,49.2,24.0,29.97,ESE,102,0.0,1.0,37,0.00,,,0.00,Wunderground v.1.15,2013-01-07 04:03:00,
2013-01-06 21:08:00,48.4,25.2,29.97,ESE,113,1.0,2.0,40,0.00,,,0.00,Wunderground v.1.15,2013-01-07 04:08:00,
2013-01-06 21:13:00,47.4,24.9,29.98,ESE,114,1.0,2.0,41,0.00,,,0.00,Wunderground v.1.15,2013-01-07 04:13:00,
2013-01-06 21:18:00,47.1,25.2,29.97,ESE,114,0.0,2.0,42,0.00,,,0.00,Wunderground v.1.15,2013-01-07 04:18:00,
2013-01-06 21:23:00,46.9,24.4,29.97,ESE,111,1.0,2.0,41,0.00,,,0.00,Wunderground v.1.15,2013-01-07 04:23:00,
2013-01-06 21:28:00,47.1,24.6,29.97,ESE,113,0.0,2.0,41,0.00,,,0.00,Wunderground v.1.15,2013-01-07 04:28:00,
2013-01-06 21:33:00,46.8,24.9,29.97,ESE,114,1.0,2.0,42,0.00,,,0.00,Wunderground v.1.15,2013-01-07 04:33:00,
2013-01-06 21:38:00,46.4,24.5,29.96,ESE,115,1.0,2.0,42,0.00,,,0.00,Wunderground v.1.15,2013-01-07 04:38:00,
2013-01-06 21:43:00,46.4,24.5,29.97,ESE,113,0.0,1.0,42,0.00,,,0.00,Wunderground v.1.15,2013-01-07 04:43:00,
2013-01-06 21:48:00,46.4,24.5,29.97,ESE,110,1.0,1.0,42,0.00,,,0.00,Wunderground v.1.15,2013-01-07 04:48:00,
2013-01-06 21:53:00,46.4,24.5,29.97,ESE,113,0.0,1.0,42,0.00,,,0.00,Wunderground v.1.15,2013-01-07 04:53:00,
2013-01-06 21:58:00,46.4,24.5,29.97,ESE,108,1.0,1.0,42,0.00,,,0.00,Wunderground v.1.15,2013-01-07 04:58:00,
2013-01-06 22:00:00,46.4,24.5,29.97,ESE,114,1.0,1.0,42,0.00,,,0.00,Wunderground v.1.15,2013-01-07 05:00:00,
2013-01-06 22:05:00,46.3,25.0,29.97,ESE,113,1.0,2.0,43,0.00,,,0.00,Wunderground v.1.15,2013-01-07 05:05:00,
2013-01-06 22:10:00,46.0,24.7,29.97,ESE,113,0.0,1.0,43,0.00,,,0.00,Wunderground v.1.15,2013-01-07 05:10:00,
2013-01-06 22:16:00,45.7,25.0,29.97,ESE,112,0.0,1.0,44,0.00,,,0.00,Wunderground v.1.15,2013-01-07 05:16:00,
2013-01-06 22:21:00,45.3,24.6,29.97,ESE,105,1.0,1.0,44,0.00,,,0.00,Wunderground v.1.15,2013-01-07 05:21:00,
2013-01-06 22:26:00,45.2,24.6,29.97,ESE,104,0.0,1.0,44,0.00,,,0.00,Wunderground v.1.15,2013-01-07 05:26:00,
2013-01-06 22:31:00,45.1,24.5,29.97,ESE,105,0.0,0.0,44,0.00,,,0.00,Wunderground v.1.15,2013-01-07 05:31:00,
2013-01-06 22:36:00,45.2,24.6,29.97,ESE,114,0.0,1.0,44,0.00,,,0.00,Wunderground v.1.15,2013-01-07 05:36:00,
2013-01-06 22:41:00,45.5,24.8,29.97,ESE,115,0.0,1.0,44,0.00,,,0.00,Wunderground v.1.15,2013-01-07 05:41:00,
2013-01-06 22:46:00,46.0,25.3,29.98,East,101,0.0,1.0,44,0.00,,,0.00,Wunderground v.1.15,2013-01-07 05:46:00,
2013-01-06 22:51:00,46.4,26.2,29.97,ESE,110,0.0,1.0,45,0.00,,,0.00,Wunderground v.1.15,2013-01-07 05:51:00,
2013-01-06 22:56:00,46.4,26.7,29.97,ESE,117,1.0,2.0,46,0.00,,,0.00,Wunderground v.1.15,2013-01-07 05:56:00,
2013-01-06 23:01:00,46.1,27.5,29.97,ESE,118,1.0,2.0,48,0.00,,,0.00,Wunderground v.1.15,2013-01-07 06:01:00,
2013-01-06 23:06:00,45.8,28.2,29.97,ESE,118,1.0,2.0,50,0.00,,,0.00,Wunderground v.1.15,2013-01-07 06:06:00,
2013-01-06 23:11:00,45.8,29.2,29.97,East,98,1.0,1.0,52,0.00,,,0.00,Wunderground v.1.15,2013-01-07 06:11:00,
2013-01-06 23:16:00,45.9,29.7,29.96,SW,218,0.0,1.0,53,0.00,,,0.00,Wunderground v.1.15,2013-01-07 06:16:00,
2013-01-06 23:21:00,45.9,30.6,29.96,ESE,121,0.0,1.0,55,0.00,,,0.00,Wunderground v.1.15,2013-01-07 06:21:00,
2013-01-06 23:26:00,46.0,30.7,29.96,SW,224,0.0,1.0,55,0.00,,,0.00,Wunderground v.1.15,2013-01-07 06:26:00,
2013-01-06 23:31:00,46.1,30.8,29.96,North,349,1.0,1.0,55,0.00,,,0.00,Wunderground v.1.15,2013-01-07 06:31:00,
2013-01-06 23:36:00,44.7,27.7,29.96,NNW,340,1.0,3.0,51,0.00,,,0.00,Wunderground v.1.15,2013-01-07 06:36:00,
2013-01-06 23:41:00,43.9,28.3,29.96,NNE,15,1.0,2.0,54,0.00,,,0.00,Wunderground v.1.15,2013-01-07 06:41:00,
2013-01-06 23:46:00,42.1,25.3,29.96,North,6,2.0,4.0,51,0.00,,,0.00,Wunderground v.1.15,2013-01-07 06:46:00,
2013-01-06 23:51:00,40.4,24.6,29.97,ENE,69,1.0,2.0,53,0.00,,,0.00,Wunderground v.1.15,2013-01-07 06:51:00,
2013-01-06 23:56:00,40.3,26.3,29.97,ENE,64,0.0,2.0,57,0.00,,,0.00,Wunderground v.1.15,2013-01-07 06:56:00,